Home   Weather   Australia   Mount Gambier   Past weeks
Flag for Australia

Past Weather in Mount Gambier, South Australia, Australia — Yesterday and Last 2 Weeks

Currently: 60 °F. Overcast. (Weather station: Mount Gambier Aerodrome, Australia). See more current weather

Past Weather in Mount Gambier — Graph

°F

Mount Gambier Temperature Yesterday

Maximum temperature yesterday: 67 °F (at 11:30 am)
Minimum temperature yesterday: 49 °F (at 6:30 am)
Average temperature yesterday: 56 °F

High & Low Weather Summary for the Past Weeks

 TemperatureHumidityPressure
High76 °F (Apr 6, 3:00 pm)98% (Apr 15, 3:00 am)30.42 "Hg (Apr 15, 3:00 am)
Low40 °F (Apr 4, 7:30 am)25% (Apr 5, 1:30 pm)29.67 "Hg (Apr 9, 5:30 pm)
Average57 °F80%30.06 "Hg
* Reported Apr 2 12:30 pm — Apr 17 11:30 am, Mount Gambier. Weather by CustomWeather, © 2026

Note: Actual official high and low records may vary slightly from our data, if they occured in-between our weather recording intervals... More about our weather records

Mount Gambier Weather History for the Previous 24 Hours

Scroll right to see more
 ConditionsComfort  
Time TempWeatherWind HumidityBarometerVisibility
11:30 am
Fri, Apr 17
61 °FRefreshingly cool.31 mph56%30.19 "HgN/A
10:30 am60 °FCool.27 mph63%30.17 "HgN/A
9:30 am58 °FCool.36 mph66%30.17 "HgN/A
9:00 am56 °FOvercast.29 mph76%30.16 "HgN/A
8:30 am56 °FCool.31 mph78%30.14 "HgN/A
7:30 am53 °FCool.16 mph80%30.11 "HgN/A
6:30 am51 °FCool.11 mph90%30.09 "HgN/A
6:00 am50 °FOvercast.11 mph93%30.08 "HgN/A
5:30 am51 °FCool.9 mph93%30.07 "HgN/A
4:30 am52 °FCool.16 mph92%30.06 "HgN/A
3:30 am53 °FCool.11 mph93%30.04 "HgN/A
3:00 am53 °FPassing clouds.9 mph93%30.04 "HgN/A
2:30 am54 °FCool.11 mph92%30.04 "HgN/A
1:30 am54 °FCool.16 mph92%30.04 "HgN/A
12:30 am54 °FCool.11 mph93%30.02 "HgN/A
12:00 am54 °FOvercast.11 mph94%30.03 "HgN/A
11:30 pm
Thu, Apr 16
54 °FCool.13 mph94%30.02 "HgN/A
10:30 pm53 °FCool.11 mph95%30.03 "HgN/A
9:30 pm51 °FCool.13 mph94%30.03 "HgN/A
9:00 pm54 °FCool.13 mph94%30.02 "HgN/A
8:30 pm54 °FCool.13 mph93%30.01 "HgN/A
7:30 pm56 °FCool.18 mph92%30.01 "HgN/A
6:30 pm58 °FCool.16 mph87%29.99 "HgN/A
6:00 pm59 °FOvercast.20 mph80%29.98 "HgN/A
5:30 pm60 °FCool.20 mph80%29.98 "HgN/A
4:30 pm61 °FCool.27 mph75%29.96 "HgN/A
3:30 pm62 °FCool.29 mph73%29.96 "HgN/A
3:00 pm63 °FOvercast.31 mph74%29.96 "HgN/A
2:30 pm63 °FMild.36 mph75%29.96 "HgN/A
1:30 pm63 °FMild.31 mph85%29.96 "HgN/A
12:30 pm65 °FMild.34 mph75%29.96 "HgN/A
12:00 pm65 °FOvercast.36 mph75%29.97 "HgN/A
Weather by CustomWeather, © 2026

See weather overview